SHT4F EGLL-EGAC
Flight info
| Callsign | SHT4F |
|---|---|
| Flight time | 1h 2m |
| Altitude | 32000 |
| Route | ULTIB/M076F320 T420 TNT UL28 RODOL UM65 TENSO L603 BELOX DCT REMSI |
| Aircraft | A20N/M-SDFGHIJ1RWXY/S |
Departure
| Time | 2026-04-20 23:01 |
|---|---|
| Airport | London Heathrow Airport (EGLL) |
Arrival
| Time | 2026-04-21 00:03 |
|---|---|
| Airport | George Best Belfast City Airport (EGAC) |
| Time | Latitude | Longitude | Altitude | Speed | Heading |
|---|---|---|---|---|---|
| 2026-04-20 22:32 | 51.46926 | -0.48860 | 89 ft | 0 kts | 359° |
| 2026-04-20 22:41 | 51.46925 | -0.48860 | 62 ft | 0 kts | 360° |
| 2026-04-20 22:41 | 51.46923 | -0.48860 | 89 ft | 0 kts | 0° |
| 2026-04-20 22:41 | 51.46920 | -0.48860 | 89 ft | 0 kts | 0° |
| 2026-04-20 22:42 | 51.46918 | -0.48860 | 93 ft | 0 kts | 1° |
| 2026-04-20 22:42 | 51.46916 | -0.48860 | 92 ft | 0 kts | 1° |
| 2026-04-20 22:42 | 51.46915 | -0.48860 | 92 ft | 0 kts | 1° |
| 2026-04-20 22:42 | 51.46913 | -0.48860 | 92 ft | 0 kts | 1° |
| 2026-04-20 22:43 | 51.46912 | -0.48860 | 91 ft | 0 kts | 1° |
| 2026-04-20 22:43 | 51.46910 | -0.48860 | 91 ft | 0 kts | 1° |
| 2026-04-20 22:43 | 51.46908 | -0.48861 | 90 ft | 1 kts | 1° |
| 2026-04-20 22:43 | 51.46905 | -0.48861 | 90 ft | 1 kts | 0° |
| 2026-04-20 22:44 | 51.46902 | -0.48861 | 89 ft | 0 kts | 360° |
| 2026-04-20 22:44 | 51.46901 | -0.48861 | 88 ft | 0 kts | 0° |
| 2026-04-20 22:44 | 51.46897 | -0.48861 | 88 ft | 1 kts | 359° |
| 2026-04-20 22:44 | 51.46895 | -0.48861 | 88 ft | 0 kts | 356° |
| 2026-04-20 22:45 | 51.46893 | -0.48861 | 88 ft | 0 kts | 354° |
| 2026-04-20 22:45 | 51.46891 | -0.48861 | 88 ft | 0 kts | 351° |
| 2026-04-20 22:45 | 51.46887 | -0.48860 | 88 ft | 1 kts | 343° |
| 2026-04-20 22:45 | 51.46883 | -0.48858 | 88 ft | 1 kts | 335° |
| 2026-04-20 22:46 | 51.46881 | -0.48856 | 91 ft | 0 kts | 331° |
| 2026-04-20 22:46 | 51.46880 | -0.48855 | 91 ft | 0 kts | 329° |
| 2026-04-20 22:46 | 51.46878 | -0.48854 | 90 ft | 0 kts | 328° |
| 2026-04-20 22:46 | 51.46877 | -0.48853 | 90 ft | 0 kts | 327° |
| 2026-04-20 22:47 | 51.46876 | -0.48852 | 92 ft | 0 kts | 325° |
| 2026-04-20 22:47 | 51.46875 | -0.48851 | 92 ft | 0 kts | 324° |
| 2026-04-20 22:47 | 51.46874 | -0.48850 | 92 ft | 0 kts | 322° |
| 2026-04-20 22:47 | 51.46863 | -0.48831 | 91 ft | 3 kts | 289° |
| 2026-04-20 22:48 | 51.46861 | -0.48808 | 92 ft | 0 kts | 261° |
| 2026-04-20 22:48 | 51.46861 | -0.48809 | 92 ft | 0 kts | 261° |
| 2026-04-20 22:48 | 51.46861 | -0.48814 | 90 ft | 1 kts | 261° |
| 2026-04-20 22:48 | 51.46860 | -0.48822 | 90 ft | 0 kts | 261° |
| 2026-04-20 22:49 | 51.46860 | -0.48824 | 90 ft | 0 kts | 261° |
| 2026-04-20 22:49 | 51.46861 | -0.48811 | 90 ft | 2 kts | 261° |
| 2026-04-20 22:49 | 51.46864 | -0.48784 | 90 ft | 2 kts | 261° |
| 2026-04-20 22:49 | 51.46866 | -0.48757 | 89 ft | 2 kts | 261° |
| 2026-04-20 22:50 | 51.46869 | -0.48731 | 88 ft | 2 kts | 261° |
| 2026-04-20 22:50 | 51.46870 | -0.48713 | 88 ft | 0 kts | 261° |
| 2026-04-20 22:51 | 51.46871 | -0.48705 | 88 ft | 0 kts | 261° |
| 2026-04-20 22:52 | 51.46871 | -0.48707 | 88 ft | 1 kts | 261° |
| 2026-04-20 22:52 | 51.46869 | -0.48723 | 88 ft | 2 kts | 259° |
| 2026-04-20 22:52 | 51.46867 | -0.48736 | 88 ft | 0 kts | 254° |
| 2026-04-20 22:52 | 51.46865 | -0.48746 | 92 ft | 2 kts | 250° |
| 2026-04-20 22:53 | 51.46864 | -0.48750 | 92 ft | 0 kts | 249° |
| 2026-04-20 22:53 | 51.46861 | -0.48760 | 91 ft | 2 kts | 245° |
| 2026-04-20 22:53 | 51.46853 | -0.48782 | 89 ft | 0 kts | 234° |
| 2026-04-20 22:53 | 51.46847 | -0.48793 | 88 ft | 1 kts | 228° |
| 2026-04-20 22:54 | 51.46836 | -0.48808 | 88 ft | 6 kts | 217° |
| 2026-04-20 22:54 | 51.46810 | -0.48827 | 91 ft | 7 kts | 194° |
| 2026-04-20 22:54 | 51.46792 | -0.48830 | 91 ft | 0 kts | 178° |
| 2026-04-20 22:54 | 51.46784 | -0.48829 | 89 ft | 4 kts | 169° |
| 2026-04-20 22:55 | 51.46780 | -0.48827 | 89 ft | 1 kts | 163° |
| 2026-04-20 22:55 | 51.46768 | -0.48819 | 90 ft | 0 kts | 153° |
| 2026-04-20 22:55 | 51.46767 | -0.48818 | 90 ft | 0 kts | 153° |
| 2026-04-20 22:55 | 51.46766 | -0.48817 | 90 ft | 2 kts | 152° |
| 2026-04-20 22:56 | 51.46720 | -0.48764 | 94 ft | 12 kts | 148° |
| 2026-04-20 22:56 | 51.46692 | -0.48746 | 91 ft | 6 kts | 167° |
| 2026-04-20 22:56 | 51.46630 | -0.48750 | 91 ft | 8 kts | 193° |
| 2026-04-20 22:56 | 51.46571 | -0.48783 | 87 ft | 9 kts | 200° |
| 2026-04-20 22:57 | 51.46518 | -0.48803 | 88 ft | 4 kts | 180° |
| 2026-04-20 22:57 | 51.46501 | -0.48800 | 88 ft | 1 kts | 171° |
| 2026-04-20 22:57 | 51.46496 | -0.48799 | 88 ft | 3 kts | 167° |
| 2026-04-20 22:57 | 51.46483 | -0.48791 | 89 ft | 0 kts | 154° |
| 2026-04-20 22:58 | 51.46481 | -0.48789 | 89 ft | 1 kts | 147° |
| 2026-04-20 22:58 | 51.46476 | -0.48783 | 89 ft | 0 kts | 139° |
| 2026-04-20 22:58 | 51.46470 | -0.48773 | 92 ft | 1 kts | 128° |
| 2026-04-20 22:58 | 51.46467 | -0.48765 | 92 ft | 1 kts | 119° |
| 2026-04-20 22:59 | 51.46464 | -0.48750 | 91 ft | 2 kts | 107° |
| 2026-04-20 22:59 | 51.46461 | -0.48714 | 92 ft | 10 kts | 92° |
| 2026-04-20 22:59 | 51.46462 | -0.48657 | 89 ft | 0 kts | 85° |
| 2026-04-20 23:00 | 51.46462 | -0.48656 | 89 ft | 0 kts | 85° |
| 2026-04-20 23:00 | 51.46466 | -0.48624 | 88 ft | 5 kts | 80° |
| 2026-04-20 23:00 | 51.46471 | -0.48571 | 92 ft | 5 kts | 82° |
| 2026-04-20 23:00 | 51.46474 | -0.48525 | 92 ft | 4 kts | 84° |
| 2026-04-20 23:01 | 51.46479 | -0.48384 | 90 ft | 38 kts | 88° |
| 2026-04-20 23:01 | 51.46482 | -0.47544 | 84 ft | 113 kts | 90° |
| 2026-04-20 23:01 | 51.46480 | -0.45912 | 130 ft | 174 kts | 93° |
| 2026-04-20 23:01 | 51.46398 | -0.43890 | 737 ft | 178 kts | 87° |
| 2026-04-20 23:02 | 51.46848 | -0.42176 | 1761 ft | 165 kts | 48° |
| 2026-04-20 23:02 | 51.47895 | -0.41306 | 2390 ft | 188 kts | 16° |
| 2026-04-20 23:02 | 51.49332 | -0.41051 | 2628 ft | 227 kts | 5° |
| 2026-04-20 23:02 | 51.50989 | -0.40964 | 3280 ft | 244 kts | 3° |
| 2026-04-20 23:03 | 51.52699 | -0.40896 | 4286 ft | 247 kts | 2° |
| 2026-04-20 23:03 | 51.54427 | -0.40829 | 5232 ft | 255 kts | 2° |
| 2026-04-20 23:03 | 51.56278 | -0.40755 | 5799 ft | 279 kts | 2° |
| 2026-04-20 23:03 | 51.58228 | -0.40677 | 5994 ft | 271 kts | 2° |
| 2026-04-20 23:04 | 51.60051 | -0.40609 | 6022 ft | 257 kts | 2° |
| 2026-04-20 23:04 | 51.61820 | -0.40543 | 6022 ft | 254 kts | 2° |
| 2026-04-20 23:04 | 51.63592 | -0.40477 | 6022 ft | 255 kts | 2° |
| 2026-04-20 23:04 | 51.65361 | -0.40411 | 6071 ft | 256 kts | 2° |
| 2026-04-20 23:05 | 51.67154 | -0.40345 | 6256 ft | 256 kts | 2° |
| 2026-04-20 23:05 | 51.68916 | -0.40280 | 6514 ft | 256 kts | 2° |
| 2026-04-20 23:05 | 51.70715 | -0.40213 | 6781 ft | 257 kts | 2° |
| 2026-04-20 23:05 | 51.72502 | -0.40147 | 7024 ft | 257 kts | 2° |
| 2026-04-20 23:06 | 51.74279 | -0.40081 | 7277 ft | 258 kts | 2° |
| 2026-04-20 23:06 | 51.76078 | -0.40014 | 7520 ft | 259 kts | 2° |
| 2026-04-20 23:06 | 51.77888 | -0.39948 | 7718 ft | 260 kts | 1° |
| 2026-04-20 23:06 | 51.79693 | -0.39882 | 7976 ft | 261 kts | 1° |
| 2026-04-20 23:07 | 51.81518 | -0.39815 | 8238 ft | 262 kts | 1° |
| 2026-04-20 23:07 | 51.83345 | -0.39748 | 8493 ft | 263 kts | 1° |
| 2026-04-20 23:07 | 51.85175 | -0.39681 | 8764 ft | 264 kts | 1° |
| 2026-04-20 23:07 | 51.87025 | -0.39614 | 9034 ft | 265 kts | 1° |
| 2026-04-20 23:08 | 51.88881 | -0.39547 | 9295 ft | 266 kts | 1° |
| 2026-04-20 23:08 | 51.90703 | -0.39837 | 9564 ft | 266 kts | 346° |
| 2026-04-20 23:08 | 51.92534 | -0.40407 | 9842 ft | 267 kts | 356° |
| 2026-04-20 23:08 | 51.94393 | -0.40444 | 10107 ft | 271 kts | 0° |
| 2026-04-20 23:09 | 51.96371 | -0.40381 | 10372 ft | 295 kts | 0° |
| 2026-04-20 23:09 | 51.98501 | -0.40303 | 10606 ft | 319 kts | 0° |
| 2026-04-20 23:09 | 52.00794 | -0.40222 | 10849 ft | 341 kts | 0° |
| 2026-04-20 23:09 | 52.03208 | -0.40140 | 11092 ft | 347 kts | 0° |
| 2026-04-20 23:10 | 52.05601 | -0.40060 | 11332 ft | 348 kts | 0° |
| 2026-04-20 23:10 | 52.08032 | -0.39980 | 11596 ft | 349 kts | 0° |
| 2026-04-20 23:10 | 52.10472 | -0.39959 | 11856 ft | 349 kts | 354° |
| 2026-04-20 23:10 | 52.12796 | -0.41045 | 12208 ft | 348 kts | 332° |
| 2026-04-20 23:11 | 52.14660 | -0.43501 | 12643 ft | 348 kts | 310° |
| 2026-04-20 23:11 | 52.15725 | -0.47003 | 13130 ft | 350 kts | 285° |
| 2026-04-20 23:11 | 52.15729 | -0.50935 | 13704 ft | 352 kts | 263° |
| 2026-04-20 23:11 | 52.15321 | -0.54817 | 14346 ft | 345 kts | 266° |
| 2026-04-20 23:12 | 52.15032 | -0.58658 | 14947 ft | 338 kts | 269° |
| 2026-04-20 23:12 | 52.14876 | -0.62430 | 15558 ft | 331 kts | 273° |
| 2026-04-20 23:12 | 52.14991 | -0.66118 | 16205 ft | 321 kts | 282° |
| 2026-04-20 23:12 | 52.15463 | -0.69613 | 16870 ft | 312 kts | 291° |
| 2026-04-20 23:13 | 52.16304 | -0.72808 | 17541 ft | 302 kts | 302° |
| 2026-04-20 23:13 | 52.17493 | -0.75525 | 18214 ft | 296 kts | 314° |
| 2026-04-20 23:13 | 52.19057 | -0.77700 | 18892 ft | 298 kts | 328° |
| 2026-04-20 23:13 | 52.20938 | -0.79204 | 19564 ft | 299 kts | 335° |
| 2026-04-20 23:14 | 52.22799 | -0.80635 | 20264 ft | 299 kts | 334° |
| 2026-04-20 23:14 | 52.24749 | -0.81931 | 20838 ft | 301 kts | 332° |
| 2026-04-20 23:14 | 52.26498 | -0.83701 | 21458 ft | 299 kts | 321° |
| 2026-04-20 23:14 | 52.28029 | -0.85984 | 22096 ft | 299 kts | 319° |
| 2026-04-20 23:15 | 52.29837 | -0.87679 | 22721 ft | 305 kts | 341° |
| 2026-04-20 23:15 | 52.31983 | -0.88072 | 23366 ft | 311 kts | 355° |
| 2026-04-20 23:15 | 52.34055 | -0.88582 | 23998 ft | 297 kts | 332° |
| 2026-04-20 23:15 | 52.35573 | -0.90660 | 24555 ft | 285 kts | 300° |
| 2026-04-20 23:16 | 52.36203 | -0.93718 | 25199 ft | 280 kts | 285° |
| 2026-04-20 23:16 | 52.36760 | -0.96672 | 25848 ft | 268 kts | 307° |
| 2026-04-20 23:16 | 52.38175 | -0.98776 | 25856 ft | 285 kts | 324° |
| 2026-04-20 23:16 | 52.39872 | -1.00587 | 25777 ft | 302 kts | 325° |
| 2026-04-20 23:17 | 52.41684 | -1.02457 | 25729 ft | 319 kts | 326° |
| 2026-04-20 23:17 | 52.43616 | -1.04376 | 25695 ft | 334 kts | 327° |
| 2026-04-20 23:17 | 52.45675 | -1.06336 | 25692 ft | 348 kts | 328° |
| 2026-04-20 23:17 | 52.47813 | -1.08283 | 25709 ft | 361 kts | 329° |
| 2026-04-20 23:18 | 52.50057 | -1.10232 | 25770 ft | 372 kts | 330° |
| 2026-04-20 23:18 | 52.52397 | -1.12170 | 25937 ft | 380 kts | 331° |
| 2026-04-20 23:18 | 52.54814 | -1.14072 | 26133 ft | 387 kts | 332° |
| 2026-04-20 23:18 | 52.57262 | -1.15903 | 26368 ft | 392 kts | 333° |
| 2026-04-20 23:19 | 52.59786 | -1.17689 | 26636 ft | 397 kts | 334° |
| 2026-04-20 23:19 | 52.62364 | -1.19414 | 26942 ft | 400 kts | 335° |
| 2026-04-20 23:19 | 52.64794 | -1.21609 | 27318 ft | 395 kts | 320° |
| 2026-04-20 23:19 | 52.66776 | -1.24671 | 27724 ft | 393 kts | 313° |
| 2026-04-20 23:20 | 52.68648 | -1.27952 | 28128 ft | 393 kts | 313° |
| 2026-04-20 23:20 | 52.69934 | -1.30067 | 28395 ft | 394 kts | 316° |
| 2026-04-20 23:20 | 52.72044 | -1.32981 | 28815 ft | 395 kts | 320° |
| 2026-04-20 23:20 | 52.74227 | -1.35761 | 29340 ft | 395 kts | 321° |
| 2026-04-20 23:21 | 52.76364 | -1.38549 | 29765 ft | 394 kts | 319° |
| 2026-04-20 23:21 | 52.78581 | -1.41275 | 30197 ft | 395 kts | 324° |
| 2026-04-20 23:21 | 52.80910 | -1.43593 | 30584 ft | 395 kts | 327° |
| 2026-04-20 23:21 | 52.83322 | -1.45833 | 30936 ft | 394 kts | 328° |
| 2026-04-20 23:22 | 52.85696 | -1.48028 | 31302 ft | 393 kts | 328° |
| 2026-04-20 23:22 | 52.88094 | -1.50229 | 31657 ft | 392 kts | 329° |
| 2026-04-20 23:22 | 52.90557 | -1.52201 | 32017 ft | 391 kts | 332° |
| 2026-04-20 23:22 | 52.93010 | -1.54041 | 32307 ft | 391 kts | 333° |
| 2026-04-20 23:23 | 52.98018 | -1.57882 | 32361 ft | 402 kts | 330° |
| 2026-04-20 23:23 | 53.03013 | -1.62386 | 32362 ft | 413 kts | 328° |
| 2026-04-20 23:24 | 53.08028 | -1.67059 | 32365 ft | 413 kts | 329° |
| 2026-04-20 23:24 | 53.13023 | -1.71723 | 32356 ft | 413 kts | 329° |
| 2026-04-20 23:25 | 53.17958 | -1.76676 | 32356 ft | 413 kts | 324° |
| 2026-04-20 23:25 | 53.22562 | -1.82421 | 32371 ft | 413 kts | 320° |
| 2026-04-20 23:26 | 53.26872 | -1.88777 | 32371 ft | 414 kts | 320° |
| 2026-04-20 23:26 | 53.31669 | -1.94086 | 32375 ft | 417 kts | 331° |
| 2026-04-20 23:27 | 53.36807 | -1.98588 | 32365 ft | 419 kts | 331° |
| 2026-04-20 23:27 | 53.41971 | -2.03140 | 32380 ft | 420 kts | 330° |
| 2026-04-20 23:28 | 53.47033 | -2.07967 | 32372 ft | 420 kts | 328° |
| 2026-04-20 23:28 | 53.52096 | -2.12974 | 32373 ft | 421 kts | 328° |
| 2026-04-20 23:29 | 53.57094 | -2.18032 | 32375 ft | 422 kts | 328° |
| 2026-04-20 23:29 | 53.61860 | -2.23767 | 32371 ft | 421 kts | 311° |
| 2026-04-20 23:30 | 53.63440 | -2.27876 | 32374 ft | 422 kts | 295° |
| 2026-04-20 23:30 | 53.64294 | -2.32632 | 32379 ft | 425 kts | 283° |
| 2026-04-20 23:30 | 53.64978 | -2.42522 | 32375 ft | 424 kts | 285° |
| 2026-04-20 23:31 | 53.67111 | -2.51717 | 32373 ft | 421 kts | 297° |
| 2026-04-20 23:31 | 53.69505 | -2.60763 | 32383 ft | 423 kts | 295° |
| 2026-04-20 23:32 | 53.71716 | -2.69867 | 32411 ft | 423 kts | 291° |
| 2026-04-20 23:32 | 53.73899 | -2.79332 | 32375 ft | 436 kts | 292° |
| 2026-04-20 23:33 | 53.76108 | -2.88971 | 32372 ft | 440 kts | 291° |
| 2026-04-20 23:33 | 53.78207 | -2.98659 | 32373 ft | 439 kts | 290° |
| 2026-04-20 23:34 | 53.80199 | -3.08374 | 32377 ft | 439 kts | 289° |
| 2026-04-20 23:34 | 53.82175 | -3.18153 | 32373 ft | 439 kts | 289° |
| 2026-04-20 23:35 | 53.85121 | -3.32814 | 32374 ft | 438 kts | 290° |
| 2026-04-20 23:36 | 53.87126 | -3.42213 | 32374 ft | 438 kts | 290° |
| 2026-04-20 23:36 | 53.89200 | -3.51925 | 32374 ft | 438 kts | 291° |
| 2026-04-20 23:37 | 53.91453 | -3.61591 | 32375 ft | 438 kts | 292° |
| 2026-04-20 23:37 | 53.93701 | -3.71146 | 32374 ft | 438 kts | 292° |
| 2026-04-20 23:38 | 53.95960 | -3.80768 | 32373 ft | 438 kts | 292° |
| 2026-04-20 23:38 | 53.98130 | -3.90407 | 32381 ft | 438 kts | 291° |
| 2026-04-20 23:38 | 53.99213 | -3.95288 | 32219 ft | 438 kts | 291° |
| 2026-04-20 23:39 | 54.00280 | -4.00100 | 31929 ft | 438 kts | 291° |
| 2026-04-20 23:39 | 54.01356 | -4.04960 | 31542 ft | 433 kts | 291° |
| 2026-04-20 23:39 | 54.02412 | -4.09709 | 31174 ft | 425 kts | 292° |
| 2026-04-20 23:39 | 54.03617 | -4.14179 | 30821 ft | 418 kts | 298° |
| 2026-04-20 23:40 | 54.05089 | -4.18404 | 30470 ft | 411 kts | 303° |
| 2026-04-20 23:40 | 54.06781 | -4.22284 | 30058 ft | 405 kts | 308° |
| 2026-04-20 23:40 | 54.08551 | -4.25934 | 29759 ft | 396 kts | 309° |
| 2026-04-20 23:40 | 54.10313 | -4.29506 | 29354 ft | 390 kts | 309° |
| 2026-04-20 23:41 | 54.12087 | -4.32965 | 28971 ft | 384 kts | 314° |
| 2026-04-20 23:41 | 54.14059 | -4.35995 | 28597 ft | 380 kts | 321° |
| 2026-04-20 23:41 | 54.16149 | -4.38663 | 28228 ft | 374 kts | 321° |
| 2026-04-20 23:41 | 54.18160 | -4.41422 | 27879 ft | 368 kts | 318° |
| 2026-04-20 23:42 | 54.20048 | -4.44362 | 27491 ft | 362 kts | 314° |
| 2026-04-20 23:42 | 54.21799 | -4.47381 | 27013 ft | 361 kts | 313° |
| 2026-04-20 23:42 | 54.23571 | -4.50460 | 26532 ft | 360 kts | 314° |
| 2026-04-20 23:42 | 54.25288 | -4.53544 | 26067 ft | 359 kts | 310° |
| 2026-04-20 23:43 | 54.26862 | -4.56860 | 25604 ft | 357 kts | 306° |
| 2026-04-20 23:43 | 54.28301 | -4.60278 | 25172 ft | 356 kts | 303° |
| 2026-04-20 23:43 | 54.29702 | -4.63783 | 24738 ft | 355 kts | 303° |
| 2026-04-20 23:43 | 54.31073 | -4.67306 | 24307 ft | 353 kts | 301° |
| 2026-04-20 23:44 | 54.32315 | -4.70885 | 23882 ft | 352 kts | 299° |
| 2026-04-20 23:44 | 54.33547 | -4.74558 | 23184 ft | 356 kts | 299° |
| 2026-04-20 23:44 | 54.34794 | -4.78268 | 22345 ft | 364 kts | 299° |
| 2026-04-20 23:44 | 54.36065 | -4.82058 | 21538 ft | 371 kts | 299° |
| 2026-04-20 23:45 | 54.37356 | -4.85907 | 20749 ft | 377 kts | 299° |
| 2026-04-20 23:45 | 54.38681 | -4.89861 | 19973 ft | 382 kts | 299° |
| 2026-04-20 23:45 | 54.40004 | -4.93806 | 19229 ft | 386 kts | 299° |
| 2026-04-20 23:45 | 54.41351 | -4.97829 | 18449 ft | 389 kts | 299° |
| 2026-04-20 23:46 | 54.42694 | -5.01863 | 17635 ft | 392 kts | 299° |
| 2026-04-20 23:46 | 54.44039 | -5.05941 | 16825 ft | 394 kts | 299° |
| 2026-04-20 23:46 | 54.45392 | -5.10072 | 16028 ft | 395 kts | 299° |
| 2026-04-20 23:46 | 54.46751 | -5.14212 | 15269 ft | 396 kts | 301° |
| 2026-04-20 23:47 | 54.48203 | -5.18199 | 14514 ft | 396 kts | 301° |
| 2026-04-20 23:47 | 54.49270 | -5.22552 | 13715 ft | 395 kts | 283° |
| 2026-04-20 23:47 | 54.49530 | -5.27244 | 12912 ft | 393 kts | 270° |
| 2026-04-20 23:47 | 54.49680 | -5.31921 | 12125 ft | 392 kts | 275° |
| 2026-04-20 23:48 | 54.49947 | -5.36573 | 11349 ft | 391 kts | 274° |
| 2026-04-20 23:48 | 54.50091 | -5.41268 | 10590 ft | 389 kts | 271° |
| 2026-04-20 23:48 | 54.50067 | -5.45897 | 9801 ft | 387 kts | 266° |
| 2026-04-20 23:48 | 54.49679 | -5.50435 | 8996 ft | 383 kts | 256° |
| 2026-04-20 23:49 | 54.49014 | -5.54832 | 8211 ft | 379 kts | 254° |
| 2026-04-20 23:49 | 54.48316 | -5.59157 | 7446 ft | 375 kts | 253° |
| 2026-04-20 23:49 | 54.47631 | -5.63438 | 6724 ft | 371 kts | 256° |
| 2026-04-20 23:49 | 54.47421 | -5.67846 | 5986 ft | 366 kts | 276° |
| 2026-04-20 23:50 | 54.48124 | -5.72002 | 5298 ft | 361 kts | 297° |
| 2026-04-20 23:50 | 54.49622 | -5.75381 | 4593 ft | 355 kts | 319° |
| 2026-04-20 23:50 | 54.51676 | -5.77554 | 3900 ft | 347 kts | 342° |
| 2026-04-20 23:50 | 54.54026 | -5.78257 | 3317 ft | 335 kts | 5° |
| 2026-04-20 23:51 | 54.56185 | -5.77383 | 3103 ft | 310 kts | 29° |
| 2026-04-20 23:51 | 54.57827 | -5.75286 | 3084 ft | 282 kts | 52° |
| 2026-04-20 23:51 | 54.58692 | -5.72485 | 3080 ft | 255 kts | 81° |
| 2026-04-20 23:51 | 54.58630 | -5.69620 | 3078 ft | 233 kts | 111° |
| 2026-04-20 23:52 | 54.57734 | -5.67436 | 3070 ft | 217 kts | 142° |
| 2026-04-20 23:52 | 54.56494 | -5.66065 | 3074 ft | 212 kts | 143° |
| 2026-04-20 23:52 | 54.55343 | -5.64493 | 3085 ft | 211 kts | 139° |
| 2026-04-20 23:52 | 54.54276 | -5.62909 | 3102 ft | 192 kts | 138° |
| 2026-04-20 23:53 | 54.53287 | -5.61433 | 3087 ft | 189 kts | 138° |
| 2026-04-20 23:53 | 54.52280 | -5.59989 | 3073 ft | 190 kts | 145° |
| 2026-04-20 23:53 | 54.50999 | -5.59450 | 3077 ft | 195 kts | 183° |
| 2026-04-20 23:53 | 54.49773 | -5.60443 | 3076 ft | 205 kts | 221° |
| 2026-04-20 23:54 | 54.49047 | -5.62598 | 3073 ft | 212 kts | 246° |
| 2026-04-20 23:54 | 54.48400 | -5.64864 | 3076 ft | 212 kts | 235° |
| 2026-04-20 23:54 | 54.47576 | -5.66956 | 3074 ft | 211 kts | 231° |
| 2026-04-20 23:54 | 54.46709 | -5.68992 | 3077 ft | 211 kts | 230° |
| 2026-04-20 23:55 | 54.45847 | -5.71030 | 3081 ft | 211 kts | 231° |
| 2026-04-20 23:55 | 54.45074 | -5.73162 | 3072 ft | 213 kts | 239° |
| 2026-04-20 23:55 | 54.44415 | -5.75474 | 3077 ft | 214 kts | 242° |
| 2026-04-20 23:55 | 54.43845 | -5.77837 | 3075 ft | 215 kts | 248° |
| 2026-04-20 23:56 | 54.43374 | -5.80286 | 3068 ft | 215 kts | 250° |
| 2026-04-20 23:56 | 54.42983 | -5.82759 | 3077 ft | 217 kts | 256° |
| 2026-04-20 23:56 | 54.42702 | -5.85295 | 3065 ft | 217 kts | 257° |
| 2026-04-20 23:56 | 54.42438 | -5.87843 | 3072 ft | 218 kts | 258° |
| 2026-04-20 23:57 | 54.42187 | -5.90388 | 3072 ft | 212 kts | 262° |
| 2026-04-20 23:57 | 54.42400 | -5.92872 | 3073 ft | 212 kts | 291° |
| 2026-04-20 23:57 | 54.43012 | -5.95177 | 3069 ft | 213 kts | 298° |
| 2026-04-20 23:57 | 54.43765 | -5.97337 | 3077 ft | 213 kts | 304° |
| 2026-04-20 23:58 | 54.44622 | -5.99448 | 3074 ft | 210 kts | 307° |
| 2026-04-20 23:58 | 54.45466 | -6.01434 | 3070 ft | 204 kts | 311° |
| 2026-04-20 23:58 | 54.46437 | -6.03127 | 3076 ft | 193 kts | 321° |
| 2026-04-20 23:58 | 54.47399 | -6.04577 | 3105 ft | 176 kts | 322° |
| 2026-04-20 23:59 | 54.48396 | -6.05599 | 3084 ft | 162 kts | 356° |
| 2026-04-20 23:59 | 54.49460 | -6.05336 | 3082 ft | 152 kts | 30° |
| 2026-04-20 23:59 | 54.50378 | -6.04522 | 3079 ft | 147 kts | 38° |
| 2026-04-20 23:59 | 54.51225 | -6.03577 | 3077 ft | 145 kts | 41° |
| 2026-04-21 00:00 | 54.52013 | -6.02506 | 3079 ft | 143 kts | 51° |
| 2026-04-21 00:00 | 54.52694 | -6.01283 | 3073 ft | 141 kts | 54° |
| 2026-04-21 00:00 | 54.53347 | -6.00012 | 2904 ft | 142 kts | 56° |
| 2026-04-21 00:00 | 54.54011 | -5.98701 | 2329 ft | 151 kts | 57° |
| 2026-04-21 00:01 | 54.54651 | -5.97156 | 1580 ft | 165 kts | 62° |
| 2026-04-21 00:01 | 54.55260 | -5.95497 | 1148 ft | 160 kts | 58° |
| 2026-04-21 00:01 | 54.55997 | -5.94208 | 1068 ft | 142 kts | 40° |
| 2026-04-21 00:01 | 54.56798 | -5.93257 | 1076 ft | 140 kts | 39° |
| 2026-04-21 00:02 | 54.57598 | -5.92294 | 947 ft | 141 kts | 38° |
| 2026-04-21 00:02 | 54.58396 | -5.91339 | 747 ft | 141 kts | 37° |
| 2026-04-21 00:02 | 54.59205 | -5.90371 | 548 ft | 141 kts | 37° |
| 2026-04-21 00:02 | 54.60032 | -5.89380 | 348 ft | 144 kts | 37° |
| 2026-04-21 00:03 | 54.60815 | -5.88445 | 164 ft | 131 kts | 38° |
| 2026-04-21 00:03 | 54.61540 | -5.87567 | 25 ft | 118 kts | 35° |
| 2026-04-21 00:03 | 54.62118 | -5.86879 | 24 ft | 87 kts | 34° |
| 2026-04-21 00:03 | 54.62343 | -5.86609 | 29 ft | 8 kts | 35° |
| 2026-04-21 00:04 | 54.62386 | -5.86560 | 26 ft | 7 kts | 34° |
| 2026-04-21 00:04 | 54.62403 | -5.86535 | 26 ft | 4 kts | 47° |
| 2026-04-21 00:04 | 54.62417 | -5.86499 | 27 ft | 0 kts | 66° |
| 2026-04-21 00:04 | 54.62422 | -5.86465 | 25 ft | 13 kts | 80° |
| 2026-04-21 00:05 | 54.62423 | -5.86433 | 25 ft | 0 kts | 92° |
| 2026-04-21 00:05 | 54.62423 | -5.86432 | 25 ft | 0 kts | 92° |
| 2026-04-21 00:05 | 54.62423 | -5.86437 | 25 ft | 1 kts | 92° |
| 2026-04-21 00:06 | 54.62423 | -5.86442 | 25 ft | 0 kts | 92° |
| 2026-04-21 00:06 | 54.62423 | -5.86454 | 25 ft | 0 kts | 92° |
| 2026-04-21 00:06 | 54.62424 | -5.86479 | 26 ft | 2 kts | 92° |
| 2026-04-21 00:06 | 54.62425 | -5.86508 | 27 ft | 2 kts | 92° |
| 2026-04-21 00:07 | 54.62425 | -5.86537 | 27 ft | 2 kts | 92° |
| 2026-04-21 00:07 | 54.62426 | -5.86547 | 29 ft | 2 kts | 94° |
| 2026-04-21 00:07 | 54.62420 | -5.86526 | 28 ft | 3 kts | 136° |
| 2026-04-21 00:07 | 54.62414 | -5.86521 | 30 ft | 3 kts | 155° |
| 2026-04-21 00:08 | 54.62394 | -5.86522 | 26 ft | 6 kts | 201° |
| 2026-04-21 00:08 | 54.62336 | -5.86620 | 27 ft | 25 kts | 227° |
| 2026-04-21 00:08 | 54.62144 | -5.86854 | 24 ft | 26 kts | 216° |
| 2026-04-21 00:08 | 54.61995 | -5.87034 | 24 ft | 28 kts | 214° |
| 2026-04-21 00:09 | 54.61954 | -5.87082 | 24 ft | 0 kts | 214° |
| 2026-04-21 00:09 | 54.61947 | -5.87090 | 24 ft | 10 kts | 214° |
| 2026-04-21 00:09 | 54.61846 | -5.87185 | 25 ft | 0 kts | 178° |
| 2026-04-21 00:10 | 54.61845 | -5.87185 | 25 ft | 0 kts | 173° |
| 2026-04-21 00:10 | 54.61841 | -5.87183 | 25 ft | 1 kts | 162° |
| 2026-04-21 00:10 | 54.61840 | -5.87183 | 25 ft | 0 kts | 154° |
| 2026-04-21 00:10 | 54.61839 | -5.87182 | 25 ft | 2 kts | 146° |
| 2026-04-21 00:11 | 54.61785 | -5.87060 | 24 ft | 23 kts | 124° |
| 2026-04-21 00:11 | 54.61755 | -5.86998 | 24 ft | 0 kts | 143° |
| 2026-04-21 00:11 | 54.61752 | -5.86995 | 24 ft | 0 kts | 149° |
| 2026-04-21 00:11 | 54.61749 | -5.86992 | 24 ft | 0 kts | 159° |
| 2026-04-21 00:12 | 54.61738 | -5.86988 | 24 ft | 2 kts | 173° |
| 2026-04-21 00:12 | 54.61734 | -5.86988 | 25 ft | 0 kts | 182° |
| 2026-04-21 00:14 | 54.61729 | -5.86989 | 25 ft | 1 kts | 191° |
| 2026-04-21 00:14 | 54.61728 | -5.86990 | 25 ft | 0 kts | 193° |
| 2026-04-21 00:15 | 54.61707 | -5.87007 | 25 ft | 14 kts | 212° |
| 2026-04-21 00:15 | 54.61692 | -5.87029 | 25 ft | 0 kts | 222° |
| 2026-04-21 00:15 | 54.61691 | -5.87029 | 25 ft | 0 kts | 222° |
| 2026-04-21 00:16 | 54.61691 | -5.87030 | 26 ft | 0 kts | 222° |
| 2026-04-21 00:16 | 54.61690 | -5.87031 | 26 ft | 0 kts | 223° |
| 2026-04-21 00:17 | 54.61690 | -5.87032 | 25 ft | 0 kts | 223° |
| 2026-04-21 00:17 | 54.61689 | -5.87033 | 25 ft | 0 kts | 223° |
| 2026-04-21 00:17 | 54.61688 | -5.87035 | 25 ft | 0 kts | 223° |
| 2026-04-21 00:18 | 54.61687 | -5.87036 | 25 ft | 0 kts | 223° |
| 2026-04-21 00:18 | 54.61687 | -5.87037 | 25 ft | 0 kts | 223° |
| 2026-04-21 00:23 | 54.61686 | -5.87038 | 33 ft | 0 kts | 223° |
| 2026-04-21 00:25 | 54.61681 | -5.87047 | 33 ft | 8 kts | 224° |
| 2026-04-21 00:25 | 54.61601 | -5.87143 | 41 ft | 8 kts | 214° |
| 2026-04-21 00:26 | 54.61557 | -5.87184 | 41 ft | 2 kts | 167° |
| 2026-04-21 00:26 | 54.61556 | -5.87176 | 41 ft | 0 kts | 107° |
| 2026-04-21 00:26 | 54.61556 | -5.87170 | 41 ft | 2 kts | 99° |
| 2026-04-21 00:26 | 54.61537 | -5.87116 | 41 ft | 0 kts | 142° |
| 2026-04-21 00:27 | 54.61537 | -5.87115 | 41 ft | 0 kts | 142° |